sensor_id;sensor_type;location;lat;lon;timestamp;P1;durP1;ratioP1;P2;durP2;ratioP2
54143;SDS011;40050;47.324;18.792;2022-10-03T00:04:08;3.45;;;1.76;;
54143;SDS011;40050;47.324;18.792;2022-10-03T00:08:23;1.73;;;1.37;;
54143;SDS011;40050;47.324;18.792;2022-10-03T00:13:09;2.00;;;1.17;;
54143;SDS011;40050;47.324;18.792;2022-10-03T00:15:00;2.45;;;1.37;;
54143;SDS011;40050;47.324;18.792;2022-10-03T00:17:30;1.36;;;1.27;;
54143;SDS011;40050;47.324;18.792;2022-10-03T00:24:14;1.63;;;1.27;;
54143;SDS011;40050;47.324;18.792;2022-10-03T00:26:19;2.27;;;1.37;;
54143;SDS011;40050;47.324;18.792;2022-10-03T00:28:45;4.98;;;1.27;;
54143;SDS011;40050;47.324;18.792;2022-10-03T00:31:19;1.99;;;1.27;;
54143;SDS011;40050;47.324;18.792;2022-10-03T00:35:47;1.45;;;1.17;;
54143;SDS011;40050;47.324;18.792;2022-10-03T00:38:04;1.63;;;1.27;;
54143;SDS011;40050;47.324;18.792;2022-10-03T01:00:49;2.80;;;1.37;;
54143;SDS011;40050;47.324;18.792;2022-10-03T01:05:37;2.26;;;1.46;;
54143;SDS011;40050;47.324;18.792;2022-10-03T01:08:03;1.72;;;1.46;;
54143;SDS011;40050;47.324;18.792;2022-10-03T01:12:15;1.09;;;1.07;;
54143;SDS011;40050;47.324;18.792;2022-10-03T01:16:43;2.26;;;1.37;;
54143;SDS011;40050;47.324;18.792;2022-10-03T01:18:55;2.17;;;1.46;;
54143;SDS011;40050;47.324;18.792;2022-10-03T01:25:44;2.90;;;1.27;;
54143;SDS011;40050;47.324;18.792;2022-10-03T01:29:56;1.81;;;1.37;;
54143;SDS011;40050;47.324;18.792;2022-10-03T01:32:04;3.44;;;1.27;;
54143;SDS011;40050;47.324;18.792;2022-10-03T01:34:06;1.45;;;1.17;;
54143;SDS011;40050;47.324;18.792;2022-10-03T01:36:09;2.17;;;1.27;;
54143;SDS011;40050;47.324;18.792;2022-10-03T01:40:42;1.18;;;1.07;;
54143;SDS011;40050;47.324;18.792;2022-10-03T01:42:43;3.79;;;1.27;;
54143;SDS011;40050;47.324;18.792;2022-10-03T01:44:53;1.81;;;1.27;;
54143;SDS011;40050;47.324;18.792;2022-10-03T01:46:57;2.71;;;1.17;;
54143;SDS011;40050;47.324;18.792;2022-10-03T01:49:07;2.44;;;1.17;;
54143;SDS011;40050;47.324;18.792;2022-10-03T01:51:37;1.71;;;1.17;;
54143;SDS011;40050;47.324;18.792;2022-10-03T01:53:47;1.80;;;1.36;;
54143;SDS011;40050;47.324;18.792;2022-10-03T01:55:59;1.62;;;1.27;;
54143;SDS011;40050;47.324;18.792;2022-10-03T01:58:00;2.52;;;1.37;;
54143;SDS011;40050;47.324;18.792;2022-10-03T02:00:15;1.71;;;1.37;;
54143;SDS011;40050;47.324;18.792;2022-10-03T02:02:29;1.80;;;1.07;;
54143;SDS011;40050;47.324;18.792;2022-10-03T02:05:14;1.62;;;1.36;;
54143;SDS011;40050;47.324;18.792;2022-10-03T02:07:34;2.61;;;1.46;;
54143;SDS011;40050;47.324;18.792;2022-10-03T02:09:31;4.31;;;1.46;;
54143;SDS011;40050;47.324;18.792;2022-10-03T02:13:56;1.44;;;1.27;;
54143;SDS011;40050;47.324;18.792;2022-10-03T02:18:21;1.80;;;1.27;;
54143;SDS011;40050;47.324;18.792;2022-10-03T02:22:45;2.51;;;1.36;;
54143;SDS011;40050;47.324;18.792;2022-10-03T02:27:29;1.97;;;1.56;;
54143;SDS011;40050;47.324;18.792;2022-10-03T02:29:33;2.33;;;1.56;;
54143;SDS011;40050;47.324;18.792;2022-10-03T03:01:47;2.50;;;1.85;;
54143;SDS011;40050;47.324;18.792;2022-10-03T03:04:30;2.23;;;1.56;;
54143;SDS011;40050;47.324;18.792;2022-10-03T03:06:37;1.70;;;1.56;;
54143;SDS011;40050;47.324;18.792;2022-10-03T03:08:56;2.15;;;1.56;;
54143;SDS011;40050;47.324;18.792;2022-10-03T03:15:38;3.59;;;1.56;;
54143;SDS011;40050;47.324;18.792;2022-10-03T03:20:01;3.59;;;1.75;;
54143;SDS011;40050;47.324;18.792;2022-10-03T03:22:24;2.42;;;1.85;;
54143;SDS011;40050;47.324;18.792;2022-10-03T03:29:07;2.96;;;1.85;;
54143;SDS011;40050;47.324;18.792;2022-10-03T03:31:09;2.60;;;1.85;;
54143;SDS011;40050;47.324;18.792;2022-10-03T03:35:51;3.04;;;1.85;;
54143;SDS011;40050;47.324;18.792;2022-10-03T03:51:50;1.97;;;1.65;;
54143;SDS011;40050;47.324;18.792;2022-10-03T03:54:07;2.51;;;1.75;;
54143;SDS011;40050;47.324;18.792;2022-10-03T03:56:36;2.42;;;1.66;;
54143;SDS011;40050;47.324;18.792;2022-10-03T03:58:41;4.22;;;2.05;;
54143;SDS011;40050;47.324;18.792;2022-10-03T04:08:09;2.33;;;2.05;;
54143;SDS011;40050;47.324;18.792;2022-10-03T04:10:15;2.69;;;1.85;;
54143;SDS011;40050;47.324;18.792;2022-10-03T04:12:22;2.15;;;1.75;;
54143;SDS011;40050;47.324;18.792;2022-10-03T04:17:06;2.34;;;2.05;;
54143;SDS011;40050;47.324;18.792;2022-10-03T04:19:38;4.75;;;2.34;;
54143;SDS011;40050;47.324;18.792;2022-10-03T04:21:48;3.14;;;2.34;;
54143;SDS011;40050;47.324;18.792;2022-10-03T04:28:15;3.41;;;2.43;;
54143;SDS011;40050;47.324;18.792;2022-10-03T04:30:18;4.39;;;2.24;;
54143;SDS011;40050;47.324;18.792;2022-10-03T04:32:39;3.50;;;2.14;;
54143;SDS011;40050;47.324;18.792;2022-10-03T04:35:10;4.30;;;2.24;;
54143;SDS011;40050;47.324;18.792;2022-10-03T04:37:03;4.66;;;2.43;;
54143;SDS011;40050;47.324;18.792;2022-10-03T04:41:25;5.01;;;2.72;;
54143;SDS011;40050;47.324;18.792;2022-10-03T04:43:39;5.01;;;2.82;;
54143;SDS011;40050;47.324;18.792;2022-10-03T04:48:09;2.86;;;2.82;;
54143;SDS011;40050;47.324;18.792;2022-10-03T04:50:17;5.63;;;2.92;;
54143;SDS011;40050;47.324;18.792;2022-10-03T04:52:33;5.18;;;3.11;;
54143;SDS011;40050;47.324;18.792;2022-10-03T04:59:25;4.20;;;3.01;;
54143;SDS011;40050;47.324;18.792;2022-10-03T05:01:46;5.27;;;3.21;;
54143;SDS011;40050;47.324;18.792;2022-10-03T05:06:58;3.94;;;3.21;;
54143;SDS011;40050;47.324;18.792;2022-10-03T05:12:41;4.93;;;3.02;;
54143;SDS011;40050;47.324;18.792;2022-10-03T05:19:44;4.56;;;2.92;;
54143;SDS011;40050;47.324;18.792;2022-10-03T05:21:57;6.17;;;3.01;;
54143;SDS011;40050;47.324;18.792;2022-10-03T05:26:27;5.73;;;3.11;;
54143;SDS011;40050;47.324;18.792;2022-10-03T05:28:49;3.94;;;2.63;;
54143;SDS011;40050;47.324;18.792;2022-10-03T05:30:49;3.40;;;2.53;;
54143;SDS011;40050;47.324;18.792;2022-10-03T05:33:08;4.58;;;2.63;;
54143;SDS011;40050;47.324;18.792;2022-10-03T05:40:15;4.57;;;2.63;;
54143;SDS011;40050;47.324;18.792;2022-10-03T05:47:16;6.82;;;2.43;;
54143;SDS011;40050;47.324;18.792;2022-10-03T05:54:01;4.42;;;2.44;;
54143;SDS011;40050;47.324;18.792;2022-10-03T06:03:09;3.08;;;1.86;;
54143;SDS011;40050;47.324;18.792;2022-10-03T06:05:35;3.45;;;2.05;;
54143;SDS011;40050;47.324;18.792;2022-10-03T06:10:13;5.73;;;2.25;;
54143;SDS011;40050;47.324;18.792;2022-10-03T06:12:52;3.27;;;1.76;;
54143;SDS011;40050;47.324;18.792;2022-10-03T06:14:53;2.73;;;1.86;;
54143;SDS011;40050;47.324;18.792;2022-10-03T06:19:21;4.19;;;1.96;;
54143;SDS011;40050;47.324;18.792;2022-10-03T06:24:09;4.40;;;1.77;;
54143;SDS011;40050;47.324;18.792;2022-10-03T06:28:45;3.77;;;1.47;;
54143;SDS011;40050;47.324;18.792;2022-10-03T06:33:39;3.95;;;1.96;;
54143;SDS011;40050;47.324;18.792;2022-10-03T06:42:51;3.81;;;1.67;;
54143;SDS011;40050;47.324;18.792;2022-10-03T06:45:08;3.82;;;1.78;;
54143;SDS011;40050;47.324;18.792;2022-10-03T06:47:28;2.98;;;1.77;;
54143;SDS011;40050;47.324;18.792;2022-10-03T06:52:09;3.27;;;1.68;;
54143;SDS011;40050;47.324;18.792;2022-10-03T06:54:20;4.29;;;1.68;;
54143;SDS011;40050;47.324;18.792;2022-10-03T06:56:29;2.81;;;1.58;;
54143;SDS011;40050;47.324;18.792;2022-10-03T07:01:22;2.44;;;1.48;;
54143;SDS011;40050;47.324;18.792;2022-10-03T07:03:44;2.91;;;1.48;;
54143;SDS011;40050;47.324;18.792;2022-10-03T07:10:37;4.34;;;1.68;;
54143;SDS011;40050;47.324;18.792;2022-10-03T07:15:06;3.53;;;1.49;;
54143;SDS011;40050;47.324;18.792;2022-10-03T07:17:25;2.96;;;1.69;;
54143;SDS011;40050;47.324;18.792;2022-10-03T07:24:33;5.25;;;1.69;;
54143;SDS011;40050;47.324;18.792;2022-10-03T07:45:26;3.09;;;1.79;;
54143;SDS011;40050;47.324;18.792;2022-10-03T07:47:53;4.07;;;1.49;;
54143;SDS011;40050;47.324;18.792;2022-10-03T08:01:33;3.31;;;1.69;;
54143;SDS011;40050;47.324;18.792;2022-10-03T08:06:13;5.46;;;1.60;;
54143;SDS011;40050;47.324;18.792;2022-10-03T08:17:36;5.07;;;1.70;;
54143;SDS011;40050;47.324;18.792;2022-10-03T08:19:49;4.79;;;1.40;;
54143;SDS011;40050;47.324;18.792;2022-10-03T08:22:04;3.32;;;1.40;;
54143;SDS011;40050;47.324;18.792;2022-10-03T08:42:48;4.03;;;1.30;;
54143;SDS011;40050;47.324;18.792;2022-10-03T08:47:15;5.02;;;1.50;;
54143;SDS011;40050;47.324;18.792;2022-10-03T08:52:06;6.10;;;1.40;;
54143;SDS011;40050;47.324;18.792;2022-10-03T08:56:17;4.34;;;1.70;;
54143;SDS011;40050;47.324;18.792;2022-10-03T09:07:53;4.54;;;1.60;;
54143;SDS011;40050;47.324;18.792;2022-10-03T09:10:07;2.57;;;1.30;;
54143;SDS011;40050;47.324;18.792;2022-10-03T09:26:28;3.15;;;1.30;;
54143;SDS011;40050;47.324;18.792;2022-10-03T09:31:15;4.23;;;1.20;;
54143;SDS011;40050;47.324;18.792;2022-10-03T09:35:41;4.72;;;1.30;;
54143;SDS011;40050;47.324;18.792;2022-10-03T09:38:14;5.02;;;1.10;;
54143;SDS011;40050;47.324;18.792;2022-10-03T09:43:00;2.76;;;1.30;;
54143;SDS011;40050;47.324;18.792;2022-10-03T09:49:41;5.42;;;1.50;;
54143;SDS011;40050;47.324;18.792;2022-10-03T09:54:21;3.64;;;1.10;;
54143;SDS011;40050;47.324;18.792;2022-10-03T09:56:56;2.46;;;1.10;;
54143;SDS011;40050;47.324;18.792;2022-10-03T09:59:10;3.74;;;1.00;;
54143;SDS011;40050;47.324;18.792;2022-10-03T10:01:18;3.16;;;1.00;;
54143;SDS011;40050;47.324;18.792;2022-10-03T10:15:58;1.87;;;0.80;;
54143;SDS011;40050;47.324;18.792;2022-10-03T10:17:51;5.91;;;1.20;;
54143;SDS011;40050;47.324;18.792;2022-10-03T10:29:07;2.96;;;0.90;;
54143;SDS011;40050;47.324;18.792;2022-10-03T10:44:56;2.26;;;1.10;;
54143;SDS011;40050;47.324;18.792;2022-10-03T10:51:42;3.54;;;1.10;;
54143;SDS011;40050;47.324;18.792;2022-10-03T10:54:47;2.55;;;1.00;;
54143;SDS011;40050;47.324;18.792;2022-10-03T10:58:55;7.17;;;1.20;;
54143;SDS011;40050;47.324;18.792;2022-10-03T11:07:52;1.38;;;0.70;;
54143;SDS011;40050;47.324;18.792;2022-10-03T11:12:39;1.38;;;0.80;;
54143;SDS011;40050;47.324;18.792;2022-10-03T11:26:52;0.98;;;0.80;;
54143;SDS011;40050;47.324;18.792;2022-10-03T11:37:40;2.17;;;0.70;;
54143;SDS011;40050;47.324;18.792;2022-10-03T11:40:04;1.87;;;0.90;;
54143;SDS011;40050;47.324;18.792;2022-10-03T11:42:19;1.97;;;0.80;;
54143;SDS011;40050;47.324;18.792;2022-10-03T11:44:45;2.27;;;0.90;;
54143;SDS011;40050;47.324;18.792;2022-10-03T11:53:42;3.16;;;0.80;;
54143;SDS011;40050;47.324;18.792;2022-10-03T11:55:59;1.48;;;0.90;;
54143;SDS011;40050;47.324;18.792;2022-10-03T11:58:21;3.35;;;1.00;;
54143;SDS011;40050;47.324;18.792;2022-10-03T12:00:15;1.77;;;0.90;;
54143;SDS011;40050;47.324;18.792;2022-10-03T12:04:44;1.48;;;0.90;;
54143;SDS011;40050;47.324;18.792;2022-10-03T12:06:52;3.45;;;0.90;;
54143;SDS011;40050;47.324;18.792;2022-10-03T12:09:18;0.98;;;0.90;;
54143;SDS011;40050;47.324;18.792;2022-10-03T12:11:12;2.95;;;1.20;;
54143;SDS011;40050;47.324;18.792;2022-10-03T12:13:22;3.34;;;0.90;;
54143;SDS011;40050;47.324;18.792;2022-10-03T12:15:28;4.42;;;1.10;;
54143;SDS011;40050;47.324;18.792;2022-10-03T12:17:38;2.56;;;0.90;;
54143;SDS011;40050;47.324;18.792;2022-10-03T12:20:17;2.56;;;1.00;;
54143;SDS011;40050;47.324;18.792;2022-10-03T12:24:35;1.78;;;0.80;;
54143;SDS011;40050;47.324;18.792;2022-10-03T12:28:53;2.17;;;1.00;;
54143;SDS011;40050;47.324;18.792;2022-10-03T12:31:38;2.86;;;0.90;;
54143;SDS011;40050;47.324;18.792;2022-10-03T12:33:07;2.07;;;0.90;;
54143;SDS011;40050;47.324;18.792;2022-10-03T12:37:44;3.55;;;0.90;;
54143;SDS011;40050;47.324;18.792;2022-10-03T12:42:25;1.48;;;0.70;;
54143;SDS011;40050;47.324;18.792;2022-10-03T12:44:45;5.53;;;1.00;;
54143;SDS011;40050;47.324;18.792;2022-10-03T12:46:48;1.28;;;0.80;;
54143;SDS011;40050;47.324;18.792;2022-10-03T12:49:23;2.57;;;0.90;;
54143;SDS011;40050;47.324;18.792;2022-10-03T12:56:13;1.77;;;0.90;;
54143;SDS011;40050;47.324;18.792;2022-10-03T12:58:34;2.17;;;1.00;;
54143;SDS011;40050;47.324;18.792;2022-10-03T13:00:32;2.47;;;0.90;;
54143;SDS011;40050;47.324;18.792;2022-10-03T13:07:27;1.28;;;0.60;;
54143;SDS011;40050;47.324;18.792;2022-10-03T13:12:07;1.37;;;0.70;;
54143;SDS011;40050;47.324;18.792;2022-10-03T13:16:22;1.36;;;0.70;;
54143;SDS011;40050;47.324;18.792;2022-10-03T13:21:04;2.14;;;0.80;;
54143;SDS011;40050;47.324;18.792;2022-10-03T13:23:10;2.62;;;0.70;;
54143;SDS011;40050;47.324;18.792;2022-10-03T13:25:21;1.26;;;0.60;;
54143;SDS011;40050;47.324;18.792;2022-10-03T13:27:35;0.97;;;0.70;;
54143;SDS011;40050;47.324;18.792;2022-10-03T13:29:45;1.17;;;0.80;;
54143;SDS011;40050;47.324;18.792;2022-10-03T13:32:08;1.36;;;0.70;;
54143;SDS011;40050;47.324;18.792;2022-10-03T13:34:02;2.24;;;0.70;;
54143;SDS011;40050;47.324;18.792;2022-10-03T13:36:28;1.85;;;0.90;;
54143;SDS011;40050;47.324;18.792;2022-10-03T13:38:42;1.65;;;1.00;;
54143;SDS011;40050;47.324;18.792;2022-10-03T13:40:46;1.85;;;0.80;;
54143;SDS011;40050;47.324;18.792;2022-10-03T13:42:46;1.26;;;0.80;;
54143;SDS011;40050;47.324;18.792;2022-10-03T13:45:01;1.85;;;0.90;;
54143;SDS011;40050;47.324;18.792;2022-10-03T13:49:31;1.56;;;0.80;;
54143;SDS011;40050;47.324;18.792;2022-10-03T13:51:47;1.66;;;0.70;;
54143;SDS011;40050;47.324;18.792;2022-10-03T13:55:53;1.46;;;0.80;;
54143;SDS011;40050;47.324;18.792;2022-10-03T14:00:19;1.27;;;0.70;;
54143;SDS011;40050;47.324;18.792;2022-10-03T14:02:37;2.15;;;0.80;;
54143;SDS011;40050;47.324;18.792;2022-10-03T14:04:53;2.64;;;0.80;;
54143;SDS011;40050;47.324;18.792;2022-10-03T14:06:45;1.86;;;0.70;;
54143;SDS011;40050;47.324;18.792;2022-10-03T14:11:59;2.54;;;0.70;;
54143;SDS011;40050;47.324;18.792;2022-10-03T14:16:15;2.15;;;0.70;;
54143;SDS011;40050;47.324;18.792;2022-10-03T14:23:06;0.98;;;0.70;;
54143;SDS011;40050;47.324;18.792;2022-10-03T14:32:11;1.66;;;0.80;;
54143;SDS011;40050;47.324;18.792;2022-10-03T14:34:24;2.94;;;0.80;;
54143;SDS011;40050;47.324;18.792;2022-10-03T14:36:46;3.33;;;0.90;;
54143;SDS011;40050;47.324;18.792;2022-10-03T14:38:45;0.88;;;0.70;;
54143;SDS011;40050;47.324;18.792;2022-10-03T14:40:47;1.37;;;0.80;;
54143;SDS011;40050;47.324;18.792;2022-10-03T14:43:21;1.57;;;0.80;;
54143;SDS011;40050;47.324;18.792;2022-10-03T14:45:16;1.76;;;0.90;;
54143;SDS011;40050;47.324;18.792;2022-10-03T14:47:35;2.06;;;1.00;;
54143;SDS011;40050;47.324;18.792;2022-10-03T14:49:31;2.94;;;0.90;;
54143;SDS011;40050;47.324;18.792;2022-10-03T14:51:39;1.56;;;0.90;;
54143;SDS011;40050;47.324;18.792;2022-10-03T14:55:59;1.47;;;0.90;;
54143;SDS011;40050;47.324;18.792;2022-10-03T14:58:15;1.57;;;0.90;;
54143;SDS011;40050;47.324;18.792;2022-10-03T15:00:06;2.25;;;1.20;;
54143;SDS011;40050;47.324;18.792;2022-10-03T15:02:24;1.57;;;0.90;;
54143;SDS011;40050;47.324;18.792;2022-10-03T15:04:23;2.84;;;0.90;;
54143;SDS011;40050;47.324;18.792;2022-10-03T15:06:34;1.27;;;0.80;;
54143;SDS011;40050;47.324;18.792;2022-10-03T15:08:23;1.76;;;1.00;;
54143;SDS011;40050;47.324;18.792;2022-10-03T15:10:24;1.86;;;1.00;;
54143;SDS011;40050;47.324;18.792;2022-10-03T15:12:30;2.15;;;0.90;;
54143;SDS011;40050;47.324;18.792;2022-10-03T15:14:34;2.93;;;1.00;;
54143;SDS011;40050;47.324;18.792;2022-10-03T15:16:38;2.25;;;1.00;;
54143;SDS011;40050;47.324;18.792;2022-10-03T15:18:37;2.93;;;1.10;;
54143;SDS011;40050;47.324;18.792;2022-10-03T15:20:41;1.66;;;1.00;;
54143;SDS011;40050;47.324;18.792;2022-10-03T15:22:52;2.34;;;1.00;;
54143;SDS011;40050;47.324;18.792;2022-10-03T15:24:56;3.61;;;0.90;;
54143;SDS011;40050;47.324;18.792;2022-10-03T15:27:01;1.86;;;1.00;;
54143;SDS011;40050;47.324;18.792;2022-10-03T15:29:06;2.44;;;1.10;;
54143;SDS011;40050;47.324;18.792;2022-10-03T15:31:10;3.03;;;1.10;;
54143;SDS011;40050;47.324;18.792;2022-10-03T15:33:26;1.86;;;0.90;;
54143;SDS011;40050;47.324;18.792;2022-10-03T15:35:17;3.22;;;1.00;;
54143;SDS011;40050;47.324;18.792;2022-10-03T15:37:18;2.83;;;1.00;;
54143;SDS011;40050;47.324;18.792;2022-10-03T15:39:24;3.71;;;1.20;;
54143;SDS011;40050;47.324;18.792;2022-10-03T15:41:27;2.94;;;1.00;;
54143;SDS011;40050;47.324;18.792;2022-10-03T15:45:37;3.62;;;1.00;;
54143;SDS011;40050;47.324;18.792;2022-10-03T15:47:47;1.86;;;0.90;;
54143;SDS011;40050;47.324;18.792;2022-10-03T15:51:57;3.12;;;1.00;;
54143;SDS011;40050;47.324;18.792;2022-10-03T15:54:06;1.47;;;1.20;;
54143;SDS011;40050;47.324;18.792;2022-10-03T15:56:22;3.13;;;1.20;;
54143;SDS011;40050;47.324;18.792;2022-10-03T15:58:28;1.08;;;1.00;;
54143;SDS011;40050;47.324;18.792;2022-10-03T16:00:28;2.34;;;1.10;;
54143;SDS011;40050;47.324;18.792;2022-10-03T16:02:34;2.83;;;1.30;;
54143;SDS011;40050;47.324;18.792;2022-10-03T16:04:35;2.05;;;1.00;;
54143;SDS011;40050;47.324;18.792;2022-10-03T16:08:56;2.44;;;1.10;;
54143;SDS011;40050;47.324;18.792;2022-10-03T16:11:04;1.08;;;0.90;;
54143;SDS011;40050;47.324;18.792;2022-10-03T16:13:34;4.01;;;1.30;;
54143;SDS011;40050;47.324;18.792;2022-10-03T16:15:25;3.32;;;1.30;;
54143;SDS011;40050;47.324;18.792;2022-10-03T16:17:21;4.31;;;1.30;;
54143;SDS011;40050;47.324;18.792;2022-10-03T16:19:37;1.76;;;1.30;;
54143;SDS011;40050;47.324;18.792;2022-10-03T16:21:39;2.35;;;1.40;;
54143;SDS011;40050;47.324;18.792;2022-10-03T16:23:45;3.13;;;1.50;;
54143;SDS011;40050;47.324;18.792;2022-10-03T16:25:55;2.64;;;1.50;;
54143;SDS011;40050;47.324;18.792;2022-10-03T16:27:58;2.15;;;1.20;;
54143;SDS011;40050;47.324;18.792;2022-10-03T16:30:14;2.25;;;1.30;;
54143;SDS011;40050;47.324;18.792;2022-10-03T16:32:08;2.05;;;1.50;;
54143;SDS011;40050;47.324;18.792;2022-10-03T16:34:14;2.74;;;1.40;;
54143;SDS011;40050;47.324;18.792;2022-10-03T16:36:17;3.03;;;1.60;;
54143;SDS011;40050;47.324;18.792;2022-10-03T16:38:33;2.44;;;1.30;;
54143;SDS011;40050;47.324;18.792;2022-10-03T16:40:24;2.34;;;1.60;;
54143;SDS011;40050;47.324;18.792;2022-10-03T16:42:29;2.84;;;1.50;;
54143;SDS011;40050;47.324;18.792;2022-10-03T16:44:49;3.71;;;1.70;;
54143;SDS011;40050;47.324;18.792;2022-10-03T16:46:47;2.64;;;1.30;;
54143;SDS011;40050;47.324;18.792;2022-10-03T16:48:59;2.83;;;1.70;;
54143;SDS011;40050;47.324;18.792;2022-10-03T16:51:01;3.32;;;1.99;;
54143;SDS011;40050;47.324;18.792;2022-10-03T16:53:06;3.13;;;1.90;;
54143;SDS011;40050;47.324;18.792;2022-10-03T16:55:11;3.81;;;1.89;;
54143;SDS011;40050;47.324;18.792;2022-10-03T16:57:11;5.27;;;1.80;;
54143;SDS011;40050;47.324;18.792;2022-10-03T16:59:17;2.93;;;1.70;;
54143;SDS011;40050;47.324;18.792;2022-10-03T17:01:31;3.61;;;1.70;;
54143;SDS011;40050;47.324;18.792;2022-10-03T17:03:36;3.81;;;1.70;;
54143;SDS011;40050;47.324;18.792;2022-10-03T17:05:40;3.22;;;1.60;;
54143;SDS011;40050;47.324;18.792;2022-10-03T17:07:57;3.02;;;1.60;;
54143;SDS011;40050;47.324;18.792;2022-10-03T17:09:57;3.22;;;1.60;;
54143;SDS011;40050;47.324;18.792;2022-10-03T17:11:59;2.92;;;1.60;;
54143;SDS011;40050;47.324;18.792;2022-10-03T17:14:11;2.73;;;1.69;;
54143;SDS011;40050;47.324;18.792;2022-10-03T17:16:35;4.88;;;1.79;;
54143;SDS011;40050;47.324;18.792;2022-10-03T17:19:08;2.82;;;1.40;;
54143;SDS011;40050;47.324;18.792;2022-10-03T17:27:41;3.70;;;1.50;;
54143;SDS011;40050;47.324;18.792;2022-10-03T17:30:35;2.92;;;1.59;;
54143;SDS011;40050;47.324;18.792;2022-10-03T17:32:12;3.51;;;1.40;;
54143;SDS011;40050;47.324;18.792;2022-10-03T17:34:16;3.02;;;1.69;;
54143;SDS011;40050;47.324;18.792;2022-10-03T17:36:42;2.43;;;1.50;;
54143;SDS011;40050;47.324;18.792;2022-10-03T17:38:50;5.26;;;1.59;;
54143;SDS011;40050;47.324;18.792;2022-10-03T17:43:18;3.01;;;1.59;;
54143;SDS011;40050;47.324;18.792;2022-10-03T17:45:43;2.63;;;1.59;;
54143;SDS011;40050;47.324;18.792;2022-10-03T17:47:48;3.61;;;1.60;;
54143;SDS011;40050;47.324;18.792;2022-10-03T17:52:02;3.80;;;1.69;;
54143;SDS011;40050;47.324;18.792;2022-10-03T17:54:50;3.01;;;1.89;;
54143;SDS011;40050;47.324;18.792;2022-10-03T17:56:11;4.67;;;1.59;;
54143;SDS011;40050;47.324;18.792;2022-10-03T17:58:16;3.30;;;1.99;;
54143;SDS011;40050;47.324;18.792;2022-10-03T18:00:33;3.21;;;1.69;;
54143;SDS011;40050;47.324;18.792;2022-10-03T18:02:58;3.11;;;1.89;;
54143;SDS011;40050;47.324;18.792;2022-10-03T18:05:11;3.11;;;1.79;;
54143;SDS011;40050;47.324;18.792;2022-10-03T18:07:19;3.88;;;1.99;;
54143;SDS011;40050;47.324;18.792;2022-10-03T18:09:31;3.59;;;1.79;;
54143;SDS011;40050;47.324;18.792;2022-10-03T18:11:22;3.30;;;1.69;;
54143;SDS011;40050;47.324;18.792;2022-10-03T18:13:45;2.71;;;1.99;;
54143;SDS011;40050;47.324;18.792;2022-10-03T18:18:02;4.65;;;1.99;;
54143;SDS011;40050;47.324;18.792;2022-10-03T18:22:18;3.30;;;2.09;;
54143;SDS011;40050;47.324;18.792;2022-10-03T18:24:41;2.43;;;1.59;;
54143;SDS011;40050;47.324;18.792;2022-10-03T18:26:41;3.69;;;1.69;;
54143;SDS011;40050;47.324;18.792;2022-10-03T18:29:09;3.79;;;1.59;;
54143;SDS011;40050;47.324;18.792;2022-10-03T18:31:10;3.30;;;1.49;;
54143;SDS011;40050;47.324;18.792;2022-10-03T18:33:09;2.82;;;1.40;;
54143;SDS011;40050;47.324;18.792;2022-10-03T18:35:33;1.75;;;1.20;;
54143;SDS011;40050;47.324;18.792;2022-10-03T18:37:53;2.33;;;1.40;;
54143;SDS011;40050;47.324;18.792;2022-10-03T18:39:48;1.95;;;1.30;;
54143;SDS011;40050;47.324;18.792;2022-10-03T18:41:50;3.01;;;1.49;;
54143;SDS011;40050;47.324;18.792;2022-10-03T18:44:01;5.63;;;1.59;;
54143;SDS011;40050;47.324;18.792;2022-10-03T18:46:18;1.75;;;1.20;;
54143;SDS011;40050;47.324;18.792;2022-10-03T18:48:30;3.40;;;1.40;;
54143;SDS011;40050;47.324;18.792;2022-10-03T18:52:50;5.14;;;1.59;;
54143;SDS011;40050;47.324;18.792;2022-10-03T18:57:28;2.92;;;1.40;;
54143;SDS011;40050;47.324;18.792;2022-10-03T19:01:59;3.40;;;1.30;;
54143;SDS011;40050;47.324;18.792;2022-10-03T19:04:15;2.33;;;1.39;;
54143;SDS011;40050;47.324;18.792;2022-10-03T19:06:24;4.48;;;1.59;;
54143;SDS011;40050;47.324;18.792;2022-10-03T19:08:36;2.04;;;1.30;;
54143;SDS011;40050;47.324;18.792;2022-10-03T19:10:49;4.18;;;1.40;;
54143;SDS011;40050;47.324;18.792;2022-10-03T19:12:54;3.89;;;1.20;;
54143;SDS011;40050;47.324;18.792;2022-10-03T19:21:39;2.62;;;1.40;;
54143;SDS011;40050;47.324;18.792;2022-10-03T19:23:50;3.50;;;1.40;;
54143;SDS011;40050;47.324;18.792;2022-10-03T19:25:52;3.89;;;1.40;;
54143;SDS011;40050;47.324;18.792;2022-10-03T19:27:56;3.79;;;1.40;;
54143;SDS011;40050;47.324;18.792;2022-10-03T19:29:59;2.72;;;1.30;;
54143;SDS011;40050;47.324;18.792;2022-10-03T19:34:19;2.72;;;1.49;;
54143;SDS011;40050;47.324;18.792;2022-10-03T19:36:21;2.92;;;1.30;;
54143;SDS011;40050;47.324;18.792;2022-10-03T19:38:40;3.20;;;1.39;;
54143;SDS011;40050;47.324;18.792;2022-10-03T19:41:03;4.66;;;1.69;;
54143;SDS011;40050;47.324;18.792;2022-10-03T19:45:10;4.07;;;1.49;;
54143;SDS011;40050;47.324;18.792;2022-10-03T19:47:24;3.78;;;1.89;;
54143;SDS011;40050;47.324;18.792;2022-10-03T19:49:51;4.16;;;1.79;;
54143;SDS011;40050;47.324;18.792;2022-10-03T19:51:48;4.93;;;1.89;;
54143;SDS011;40050;47.324;18.792;2022-10-03T19:53:48;3.77;;;1.59;;
54143;SDS011;40050;47.324;18.792;2022-10-03T19:55:51;2.90;;;1.69;;
54143;SDS011;40050;47.324;18.792;2022-10-03T19:58:04;3.28;;;1.29;;
54143;SDS011;40050;47.324;18.792;2022-10-03T20:00:24;2.70;;;1.59;;
54143;SDS011;40050;47.324;18.792;2022-10-03T20:02:22;3.76;;;1.49;;
54143;SDS011;40050;47.324;18.792;2022-10-03T20:04:31;3.95;;;1.69;;
54143;SDS011;40050;47.324;18.792;2022-10-03T20:06:49;2.98;;;1.59;;
54143;SDS011;40050;47.324;18.792;2022-10-03T20:08:59;3.56;;;1.69;;
54143;SDS011;40050;47.324;18.792;2022-10-03T20:13:27;3.94;;;1.79;;
54143;SDS011;40050;47.324;18.792;2022-10-03T20:15:44;3.65;;;1.99;;
54143;SDS011;40050;47.324;18.792;2022-10-03T20:17:44;3.46;;;2.19;;
54143;SDS011;40050;47.324;18.792;2022-10-03T20:20:03;4.23;;;2.19;;
54143;SDS011;40050;47.324;18.792;2022-10-03T20:21:49;6.54;;;2.68;;
54143;SDS011;40050;47.324;18.792;2022-10-03T20:23:51;5.86;;;2.58;;
54143;SDS011;40050;47.324;18.792;2022-10-03T20:26:04;6.43;;;2.58;;
54143;SDS011;40050;47.324;18.792;2022-10-03T20:28:25;5.57;;;2.49;;
54143;SDS011;40050;47.324;18.792;2022-10-03T20:32:19;4.90;;;2.58;;
54143;SDS011;40050;47.324;18.792;2022-10-03T20:34:22;3.46;;;2.09;;
54143;SDS011;40050;47.324;18.792;2022-10-03T20:36:39;3.74;;;2.19;;
54143;SDS011;40050;47.324;18.792;2022-10-03T20:41:14;3.36;;;1.99;;
54143;SDS011;40050;47.324;18.792;2022-10-03T20:43:16;4.12;;;2.19;;
54143;SDS011;40050;47.324;18.792;2022-10-03T20:45:39;3.93;;;2.19;;
54143;SDS011;40050;47.324;18.792;2022-10-03T20:47:54;4.02;;;1.89;;
54143;SDS011;40050;47.324;18.792;2022-10-03T20:49:50;4.21;;;2.19;;
54143;SDS011;40050;47.324;18.792;2022-10-03T20:52:14;6.04;;;2.09;;
54143;SDS011;40050;47.324;18.792;2022-10-03T20:54:22;3.73;;;1.79;;
54143;SDS011;40050;47.324;18.792;2022-10-03T20:56:35;4.21;;;1.99;;
54143;SDS011;40050;47.324;18.792;2022-10-03T20:58:59;5.26;;;2.09;;
54143;SDS011;40050;47.324;18.792;2022-10-03T21:01:02;4.41;;;1.89;;
54143;SDS011;40050;47.324;18.792;2022-10-03T21:03:13;4.12;;;2.09;;
54143;SDS011;40050;47.324;18.792;2022-10-03T21:05:24;4.21;;;2.19;;
54143;SDS011;40050;47.324;18.792;2022-10-03T21:07:39;4.31;;;1.79;;
54143;SDS011;40050;47.324;18.792;2022-10-03T21:10:00;4.12;;;2.09;;
54143;SDS011;40050;47.324;18.792;2022-10-03T21:11:58;2.96;;;2.09;;